1736 UTC 31 October 2014 found at http://aviationweather.gov/adds/metars/
 
METAR text: KMNH 311711Z AUTO 18017G22KT 10SM CLR 03/M03 A3029 RMK AO2
Conditions at: KMNH (MONUMENT/ELBERT , CO, US) observed 1711 UTC 31 October 2014
Temperature: 3.0°C (37°F)
Dewpoint: -3.0°C (27°F) [RH = 65%]
Pressure (altimeter): 30.29 inches Hg (1025.8 mb)
Winds: from the S (180 degrees) at 20 MPH (17 knots; 8.8 m/sgusting to 25 MPH (22 knots; 11.4 m/s)
Visibility: 10 or more miles (16+ km)
Ceiling: at least 12,000 feet AGL
Clouds: sky clear below 12,000 feet AGL
Weather: automated observation with no human augmentation;
there may or may not be significant weather present at this time

METAR text: KMNH 311652Z AUTO 19019G24KT 10SM CLR 05/M03 A3030 RMK AO2
Conditions at: KMNH (MONUMENT/ELBERT , CO, US) observed 1652 UTC 31 October 2014
Temperature: 5.0°C (41°F)
Dewpoint: -3.0°C (27°F) [RH = 56%]
Pressure (altimeter): 30.30 inches Hg (1026.2 mb)
Winds: from the S (190 degrees) at 22 MPH (19 knots; 9.9 m/sgusting to 28 MPH (24 knots; 12.5 m/s)
Visibility: 10 or more miles (16+ km)
Ceiling: at least 12,000 feet AGL
Clouds: sky clear below 12,000 feet AGL
Weather: automated observation with no human augmentation;
there may or may not be significant weather present at this time

METAR text: KMNH 311631Z AUTO 18019G24KT 10SM CLR 04/M03 A3031 RMK AO2
Conditions at: KMNH (MONUMENT/ELBERT , CO, US) observed 1631 UTC 31 October 2014
Temperature: 4.0°C (39°F)
Dewpoint: -3.0°C (27°F) [RH = 60%]
Pressure (altimeter): 30.31 inches Hg (1026.5 mb)
Winds: from the S (180 degrees) at 22 MPH (19 knots; 9.9 m/sgusting to 28 MPH (24 knots; 12.5 m/s)
Visibility: 10 or more miles (16+ km)
Ceiling: at least 12,000 feet AGL
Clouds: sky clear below 12,000 feet AGL
Weather: automated observation with no human augmentation;
there may or may not be significant weather present at this time

METAR text: KMNH 311611Z AUTO 19020G25KT 10SM CLR 03/M03 A3032 RMK AO2
Conditions at: KMNH (MONUMENT/ELBERT , CO, US) observed 1611 UTC 31 October 2014
Temperature: 3.0°C (37°F)
Dewpoint: -3.0°C (27°F) [RH = 65%]
Pressure (altimeter): 30.32 inches Hg (1026.8 mb)
Winds: from the S (190 degrees) at 23 MPH (20 knots; 10.4 m/sgusting to 29 MPH (25 knots; 13.0 m/s)
Visibility: 10 or more miles (16+ km)
Ceiling: at least 12,000 feet AGL
Clouds: sky clear below 12,000 feet AGL
Weather: automated observation with no human augmentation;
there may or may not be significant weather present at this time

METAR text: KMNH 311551Z AUTO 20017G23KT 10SM CLR 02/M03 A3033 RMK AO2
Conditions at: KMNH (MONUMENT/ELBERT , CO, US) observed 1551 UTC 31 October 2014
Temperature: 2.0°C (36°F)
Dewpoint: -3.0°C (27°F) [RH = 69%]
Pressure (altimeter): 30.33 inches Hg (1027.2 mb)
Winds: from the SSW (200 degrees) at 20 MPH (17 knots; 8.8 m/sgusting to 26 MPH (23 knots; 12.0 m/s)
Visibility: 10 or more miles (16+ km)
Ceiling: at least 12,000 feet AGL
Clouds: sky clear below 12,000 feet AGL
Weather: automated observation with no human augmentation;
there may or may not be significant weather present at this time

METAR text: KMNH 311531Z AUTO 19017G24KT 10SM CLR 02/M03 A3034 RMK AO2
Conditions at: KMNH (MONUMENT/ELBERT , CO, US) observed 1531 UTC 31 October 2014
Temperature: 2.0°C (36°F)
Dewpoint: -3.0°C (27°F) [RH = 69%]
Pressure (altimeter): 30.34 inches Hg (1027.5 mb)
Winds: from the S (190 degrees) at 20 MPH (17 knots; 8.8 m/sgusting to 28 MPH (24 knots; 12.5 m/s)
Visibility: 10 or more miles (16+ km)
Ceiling: at least 12,000 feet AGL
Clouds: sky clear below 12,000 feet AGL
Weather: automated observation with no human augmentation;
there may or may not be significant weather present at this time

METAR text: KMNH 311512Z AUTO 18019G25KT 10SM CLR 02/M03 A3034 RMK AO2
Conditions at: KMNH (MONUMENT/ELBERT , CO, US) observed 1512 UTC 31 October 2014
Temperature: 2.0°C (36°F)
Dewpoint: -3.0°C (27°F) [RH = 69%]
Pressure (altimeter): 30.34 inches Hg (1027.5 mb)
Winds: from the S (180 degrees) at 22 MPH (19 knots; 9.9 m/sgusting to 29 MPH (25 knots; 13.0 m/s)
Visibility: 10 or more miles (16+ km)
Ceiling: at least 12,000 feet AGL
Clouds: sky clear below 12,000 feet AGL
Weather: automated observation with no human augmentation;
there may or may not be significant weather present at this time

METAR text: KMNH 311452Z AUTO 19021G24KT 10SM CLR 01/M03 A3033 RMK AO2
Conditions at: KMNH (MONUMENT/ELBERT , CO, US) observed 1452 UTC 31 October 2014
Temperature: 1.0°C (34°F)
Dewpoint: -3.0°C (27°F) [RH = 75%]
Pressure (altimeter): 30.33 inches Hg (1027.2 mb)
Winds: from the S (190 degrees) at 24 MPH (21 knots; 10.9 m/sgusting to 28 MPH (24 knots; 12.5 m/s)
Visibility: 10 or more miles (16+ km)
Ceiling: at least 12,000 feet AGL
Clouds: sky clear below 12,000 feet AGL
Weather: automated observation with no human augmentation;
there may or may not be significant weather present at this time

METAR text: KMNH 311432Z AUTO 18017G23KT 10SM CLR 01/M03 A3033 RMK AO2
Conditions at: KMNH (MONUMENT/ELBERT , CO, US) observed 1432 UTC 31 October 2014
Temperature: 1.0°C (34°F)
Dewpoint: -3.0°C (27°F) [RH = 75%]
Pressure (altimeter): 30.33 inches Hg (1027.2 mb)
Winds: from the S (180 degrees) at 20 MPH (17 knots; 8.8 m/sgusting to 26 MPH (23 knots; 12.0 m/s)
Visibility: 10 or more miles (16+ km)
Ceiling: at least 12,000 feet AGL
Clouds: sky clear below 12,000 feet AGL
Weather: automated observation with no human augmentation;
there may or may not be significant weather present at this time

METAR text: KMNH 311412Z AUTO 19015KT 10SM CLR 00/M03 A3033 RMK AO2
Conditions at: KMNH (MONUMENT/ELBERT , CO, US) observed 1412 UTC 31 October 2014
Temperature: 0.0°C (32°F)
Dewpoint: -3.0°C (27°F) [RH = 80%]
Pressure (altimeter): 30.33 inches Hg (1027.2 mb)
Winds: from the S (190 degrees) at 17 MPH (15 knots; 7.8 m/s)
Visibility: 10 or more miles (16+ km)
Ceiling: at least 12,000 feet AGL
Clouds: sky clear below 12,000 feet AGL
Weather: automated observation with no human augmentation;
there may or may not be significant weather present at this time

METAR text: KMNH 311352Z AUTO 21008KT 10SM CLR 00/M03 A3034 RMK AO2
Conditions at: KMNH (MONUMENT/ELBERT , CO, US) observed 1352 UTC 31 October 2014
Temperature: 0.0°C (32°F)
Dewpoint: -3.0°C (27°F) [RH = 80%]
Pressure (altimeter): 30.34 inches Hg (1027.5 mb)
Winds: from the SSW (210 degrees) at 9 MPH (8 knots; 4.2 m/s)
Visibility: 10 or more miles (16+ km)
Ceiling: at least 12,000 feet AGL
Clouds: sky clear below 12,000 feet AGL
Weather: automated observation with no human augmentation;
there may or may not be significant weather present at this time

METAR text: KMNH 311332Z AUTO 19014KT 10SM CLR 00/M03 A3033 RMK AO2
Conditions at: KMNH (MONUMENT/ELBERT , CO, US) observed 1332 UTC 31 October 2014
Temperature: 0.0°C (32°F)
Dewpoint: -3.0°C (27°F) [RH = 80%]
Pressure (altimeter): 30.33 inches Hg (1027.2 mb)
Winds: from the S (190 degrees) at 16 MPH (14 knots; 7.3 m/s)
Visibility: 10 or more miles (16+ km)
Ceiling: at least 12,000 feet AGL
Clouds: sky clear below 12,000 feet AGL
Weather: automated observation with no human augmentation;
there may or may not be significant weather present at this time

METAR text: KMNH 311312Z AUTO 19012KT 10SM CLR 00/M03 A3033 RMK AO2
Conditions at: KMNH (MONUMENT/ELBERT , CO, US) observed 1312 UTC 31 October 2014
Temperature: 0.0°C (32°F)
Dewpoint: -3.0°C (27°F) [RH = 80%]
Pressure (altimeter): 30.33 inches Hg (1027.2 mb)
Winds: from the S (190 degrees) at 14 MPH (12 knots; 6.2 m/s)
Visibility: 10 or more miles (16+ km)
Ceiling: at least 12,000 feet AGL
Clouds: sky clear below 12,000 feet AGL
Weather: automated observation with no human augmentation;
there may or may not be significant weather present at this time

METAR text: KMNH 311251Z AUTO 18015KT 10SM CLR 00/M03 A3034 RMK AO2
Conditions at: KMNH (MONUMENT/ELBERT , CO, US) observed 1251 UTC 31 October 2014
Temperature: 0.0°C (32°F)
Dewpoint: -3.0°C (27°F) [RH = 80%]
Pressure (altimeter): 30.34 inches Hg (1027.5 mb)
Winds: from the S (180 degrees) at 17 MPH (15 knots; 7.8 m/s)
Visibility: 10 or more miles (16+ km)
Ceiling: at least 12,000 feet AGL
Clouds: sky clear below 12,000 feet AGL
Weather: automated observation with no human augmentation;
there may or may not be significant weather present at this time

METAR text: KMNH 311232Z AUTO 19014KT 10SM CLR 00/M03 A3035 RMK AO2
Conditions at: KMNH (MONUMENT/ELBERT , CO, US) observed 1232 UTC 31 October 2014
Temperature: 0.0°C (32°F)
Dewpoint: -3.0°C (27°F) [RH = 80%]
Pressure (altimeter): 30.35 inches Hg (1027.9 mb)
Winds: from the S (190 degrees) at 16 MPH (14 knots; 7.3 m/s)
Visibility: 10 or more miles (16+ km)
Ceiling: at least 12,000 feet AGL
Clouds: sky clear below 12,000 feet AGL
Weather: automated observation with no human augmentation;
there may or may not be significant weather present at this time

METAR text: KMNH 311212Z AUTO 19012KT 10SM CLR 00/M04 A3036 RMK AO2
Conditions at: KMNH (MONUMENT/ELBERT , CO, US) observed 1212 UTC 31 October 2014
Temperature: 0.0°C (32°F)
Dewpoint: -4.0°C (25°F) [RH = 74%]
Pressure (altimeter): 30.36 inches Hg (1028.2 mb)
Winds: from the S (190 degrees) at 14 MPH (12 knots; 6.2 m/s)
Visibility: 10 or more miles (16+ km)
Ceiling: at least 12,000 feet AGL
Clouds: sky clear below 12,000 feet AGL
Weather: automated observation with no human augmentation;
there may or may not be significant weather present at this time

METAR text: KMNH 311152Z AUTO 18011KT 10SM CLR 00/M04 A3036 RMK AO2
Conditions at: KMNH (MONUMENT/ELBERT , CO, US) observed 1152 UTC 31 October 2014
Temperature: 0.0°C (32°F)
Dewpoint: -4.0°C (25°F) [RH = 74%]
Pressure (altimeter): 30.36 inches Hg (1028.2 mb)
Winds: from the S (180 degrees) at 13 MPH (11 knots; 5.7 m/s)
Visibility: 10 or more miles (16+ km)
Ceiling: at least 12,000 feet AGL
Clouds: sky clear below 12,000 feet AGL
Weather: automated observation with no human augmentation;
there may or may not be significant weather present at this time

METAR text: KMNH 311132Z AUTO 17013KT 10SM CLR 00/M04 A3036 RMK AO2
Conditions at: KMNH (MONUMENT/ELBERT , CO, US) observed 1132 UTC 31 October 2014
Temperature: 0.0°C (32°F)
Dewpoint: -4.0°C (25°F) [RH = 74%]
Pressure (altimeter): 30.36 inches Hg (1028.2 mb)
Winds: from the S (170 degrees) at 15 MPH (13 knots; 6.8 m/s)
Visibility: 10 or more miles (16+ km)
Ceiling: at least 12,000 feet AGL
Clouds: sky clear below 12,000 feet AGL
Weather: automated observation with no human augmentation;
there may or may not be significant weather present at this time

METAR text: KMNH 311112Z AUTO 16014G19KT 10SM CLR 00/M04 A3036 RMK AO2
Conditions at: KMNH (MONUMENT/ELBERT , CO, US) observed 1112 UTC 31 October 2014
Temperature: 0.0°C (32°F)
Dewpoint: -4.0°C (25°F) [RH = 74%]
Pressure (altimeter): 30.36 inches Hg (1028.2 mb)
Winds: from the SSE (160 degrees) at 16 MPH (14 knots; 7.3 m/sgusting to 22 MPH (19 knots; 9.9 m/s)
Visibility: 10 or more miles (16+ km)
Ceiling: at least 12,000 feet AGL
Clouds: sky clear below 12,000 feet AGL
Weather: automated observation with no human augmentation;
there may or may not be significant weather present at this time

METAR text: KMNH 311052Z AUTO 17015KT 10SM CLR 00/M04 A3036 RMK AO2
Conditions at: KMNH (MONUMENT/ELBERT , CO, US) observed 1052 UTC 31 October 2014
Temperature: 0.0°C (32°F)
Dewpoint: -4.0°C (25°F) [RH = 74%]
Pressure (altimeter): 30.36 inches Hg (1028.2 mb)
Winds: from the S (170 degrees) at 17 MPH (15 knots; 7.8 m/s)
Visibility: 10 or more miles (16+ km)
Ceiling: at least 12,000 feet AGL
Clouds: sky clear below 12,000 feet AGL
Weather: automated observation with no human augmentation;
there may or may not be significant weather present at this time

METAR text: KMNH 311032Z AUTO 16016G21KT 10SM CLR 00/M04 A3036 RMK AO2
Conditions at: KMNH (MONUMENT/ELBERT , CO, US) observed 1032 UTC 31 October 2014
Temperature: 0.0°C (32°F)
Dewpoint: -4.0°C (25°F) [RH = 74%]
Pressure (altimeter): 30.36 inches Hg (1028.2 mb)
Winds: from the SSE (160 degrees) at 18 MPH (16 knots; 8.3 m/sgusting to 24 MPH (21 knots; 10.9 m/s)
Visibility: 10 or more miles (16+ km)
Ceiling: at least 12,000 feet AGL
Clouds: sky clear below 12,000 feet AGL
Weather: automated observation with no human augmentation;
there may or may not be significant weather present at this time

METAR text: KMNH 311012Z AUTO 17015KT 10SM CLR 01/M05 A3037 RMK AO2
Conditions at: KMNH (MONUMENT/ELBERT , CO, US) observed 1012 UTC 31 October 2014
Temperature: 1.0°C (34°F)
Dewpoint: -5.0°C (23°F) [RH = 64%]
Pressure (altimeter): 30.37 inches Hg (1028.5 mb)
Winds: from the S (170 degrees) at 17 MPH (15 knots; 7.8 m/s)
Visibility: 10 or more miles (16+ km)
Ceiling: at least 12,000 feet AGL
Clouds: sky clear below 12,000 feet AGL
Weather: automated observation with no human augmentation;
there may or may not be significant weather present at this time

METAR text: KMNH 310952Z AUTO 16013G20KT 10SM CLR 01/M05 A3037 RMK AO2
Conditions at: KMNH (MONUMENT/ELBERT , CO, US) observed 0952 UTC 31 October 2014
Temperature: 1.0°C (34°F)
Dewpoint: -5.0°C (23°F) [RH = 64%]
Pressure (altimeter): 30.37 inches Hg (1028.5 mb)
Winds: from the SSE (160 degrees) at 15 MPH (13 knots; 6.8 m/sgusting to 23 MPH (20 knots; 10.4 m/s)
Visibility: 10 or more miles (16+ km)
Ceiling: at least 12,000 feet AGL
Clouds: sky clear below 12,000 feet AGL
Weather: automated observation with no human augmentation;
there may or may not be significant weather present at this time

METAR text: KMNH 310932Z AUTO 17014G19KT 10SM CLR 02/M05 A3037 RMK AO2
Conditions at: KMNH (MONUMENT/ELBERT , CO, US) observed 0932 UTC 31 October 2014
Temperature: 2.0°C (36°F)
Dewpoint: -5.0°C (23°F) [RH = 60%]
Pressure (altimeter): 30.37 inches Hg (1028.5 mb)
Winds: from the S (170 degrees) at 16 MPH (14 knots; 7.3 m/sgusting to 22 MPH (19 knots; 9.9 m/s)
Visibility: 10 or more miles (16+ km)
Ceiling: at least 12,000 feet AGL
Clouds: sky clear below 12,000 feet AGL
Weather: automated observation with no human augmentation;
there may or may not be significant weather present at this time

METAR text: KMNH 310912Z AUTO 17014KT 10SM CLR 01/M05 A3039 RMK AO2
Conditions at: KMNH (MONUMENT/ELBERT , CO, US) observed 0912 UTC 31 October 2014
Temperature: 1.0°C (34°F)
Dewpoint: -5.0°C (23°F) [RH = 64%]
Pressure (altimeter): 30.39 inches Hg (1029.2 mb)
Winds: from the S (170 degrees) at 16 MPH (14 knots; 7.3 m/s)
Visibility: 10 or more miles (16+ km)
Ceiling: at least 12,000 feet AGL
Clouds: sky clear below 12,000 feet AGL
Weather: automated observation with no human augmentation;
there may or may not be significant weather present at this time

METAR text: KMNH 310852Z AUTO 17012KT 10SM CLR 02/M05 A3040 RMK AO2
Conditions at: KMNH (MONUMENT/ELBERT , CO, US) observed 0852 UTC 31 October 2014
Temperature: 2.0°C (36°F)
Dewpoint: -5.0°C (23°F) [RH = 60%]
Pressure (altimeter): 30.40 inches Hg (1029.5 mb)
Winds: from the S (170 degrees) at 14 MPH (12 knots; 6.2 m/s)
Visibility: 10 or more miles (16+ km)
Ceiling: at least 12,000 feet AGL
Clouds: sky clear below 12,000 feet AGL
Weather: automated observation with no human augmentation;
there may or may not be significant weather present at this time

METAR text: KMNH 310832Z AUTO 17012KT 10SM CLR 02/M05 A3040 RMK AO2
Conditions at: KMNH (MONUMENT/ELBERT , CO, US) observed 0832 UTC 31 October 2014
Temperature: 2.0°C (36°F)
Dewpoint: -5.0°C (23°F) [RH = 60%]
Pressure (altimeter): 30.40 inches Hg (1029.5 mb)
Winds: from the S (170 degrees) at 14 MPH (12 knots; 6.2 m/s)
Visibility: 10 or more miles (16+ km)
Ceiling: at least 12,000 feet AGL
Clouds: sky clear below 12,000 feet AGL
Weather: automated observation with no human augmentation;
there may or may not be significant weather present at this time

METAR text: KMNH 310811Z AUTO 17012KT 10SM CLR 01/M05 A3041 RMK AO2
Conditions at: KMNH (MONUMENT/ELBERT , CO, US) observed 0811 UTC 31 October 2014
Temperature: 1.0°C (34°F)
Dewpoint: -5.0°C (23°F) [RH = 64%]
Pressure (altimeter): 30.41 inches Hg (1029.9 mb)
Winds: from the S (170 degrees) at 14 MPH (12 knots; 6.2 m/s)
Visibility: 10 or more miles (16+ km)
Ceiling: at least 12,000 feet AGL
Clouds: sky clear below 12,000 feet AGL
Weather: automated observation with no human augmentation;
there may or may not be significant weather present at this time

METAR text: KMNH 310751Z AUTO 16010KT 10SM CLR 00/M05 A3041 RMK AO2
Conditions at: KMNH (MONUMENT/ELBERT , CO, US) observed 0751 UTC 31 October 2014
Temperature: 0.0°C (32°F)
Dewpoint: -5.0°C (23°F) [RH = 69%]
Pressure (altimeter): 30.41 inches Hg (1029.9 mb)
Winds: from the SSE (160 degrees) at 12 MPH (10 knots; 5.2 m/s)
Visibility: 10 or more miles (16+ km)
Ceiling: at least 12,000 feet AGL
Clouds: sky clear below 12,000 feet AGL
Weather: automated observation with no human augmentation;
there may or may not be significant weather present at this time

METAR text: KMNH 310731Z AUTO 16011KT 10SM CLR 01/M05 A3042 RMK AO2
Conditions at: KMNH (MONUMENT/ELBERT , CO, US) observed 0731 UTC 31 October 2014
Temperature: 1.0°C (34°F)
Dewpoint: -5.0°C (23°F) [RH = 64%]
Pressure (altimeter): 30.42 inches Hg (1030.2 mb)
Winds: from the SSE (160 degrees) at 13 MPH (11 knots; 5.7 m/s)
Visibility: 10 or more miles (16+ km)
Ceiling: at least 12,000 feet AGL
Clouds: sky clear below 12,000 feet AGL
Weather: automated observation with no human augmentation;
there may or may not be significant weather present at this time

METAR text: KMNH 310712Z AUTO 16013KT 10SM CLR 02/M05 A3043 RMK AO2
Conditions at: KMNH (MONUMENT/ELBERT , CO, US) observed 0712 UTC 31 October 2014
Temperature: 2.0°C (36°F)
Dewpoint: -5.0°C (23°F) [RH = 60%]
Pressure (altimeter): 30.43 inches Hg (1030.6 mb)
Winds: from the SSE (160 degrees) at 15 MPH (13 knots; 6.8 m/s)
Visibility: 10 or more miles (16+ km)
Ceiling: at least 12,000 feet AGL
Clouds: sky clear below 12,000 feet AGL
Weather: automated observation with no human augmentation;
there may or may not be significant weather present at this time

METAR text: KMNH 310652Z AUTO 17011KT 10SM CLR 01/M05 A3043 RMK AO2
Conditions at: KMNH (MONUMENT/ELBERT , CO, US) observed 0652 UTC 31 October 2014
Temperature: 1.0°C (34°F)
Dewpoint: -5.0°C (23°F) [RH = 64%]
Pressure (altimeter): 30.43 inches Hg (1030.6 mb)
Winds: from the S (170 degrees) at 13 MPH (11 knots; 5.7 m/s)
Visibility: 10 or more miles (16+ km)
Ceiling: at least 12,000 feet AGL
Clouds: sky clear below 12,000 feet AGL
Weather: automated observation with no human augmentation;
there may or may not be significant weather present at this time

METAR text: KMNH 310632Z AUTO 17009KT 10SM CLR 01/M05 A3043 RMK AO2
Conditions at: KMNH (MONUMENT/ELBERT , CO, US) observed 0632 UTC 31 October 2014
Temperature: 1.0°C (34°F)
Dewpoint: -5.0°C (23°F) [RH = 64%]
Pressure (altimeter): 30.43 inches Hg (1030.6 mb)
Winds: from the S (170 degrees) at 10 MPH (9 knots; 4.7 m/s)
Visibility: 10 or more miles (16+ km)
Ceiling: at least 12,000 feet AGL
Clouds: sky clear below 12,000 feet AGL
Weather: automated observation with no human augmentation;
there may or may not be significant weather present at this time

METAR text: KMNH 310612Z AUTO 17012KT 10SM CLR 01/M05 A3043 RMK AO2
Conditions at: KMNH (MONUMENT/ELBERT , CO, US) observed 0612 UTC 31 October 2014
Temperature: 1.0°C (34°F)
Dewpoint: -5.0°C (23°F) [RH = 64%]
Pressure (altimeter): 30.43 inches Hg (1030.6 mb)
Winds: from the S (170 degrees) at 14 MPH (12 knots; 6.2 m/s)
Visibility: 10 or more miles (16+ km)
Ceiling: at least 12,000 feet AGL
Clouds: sky clear below 12,000 feet AGL
Weather: automated observation with no human augmentation;
there may or may not be significant weather present at this time

METAR text: KMNH 310552Z AUTO 17010KT 10SM CLR 01/M05 A3043 RMK AO2
Conditions at: KMNH (MONUMENT/ELBERT , CO, US) observed 0552 UTC 31 October 2014
Temperature: 1.0°C (34°F)
Dewpoint: -5.0°C (23°F) [RH = 64%]
Pressure (altimeter): 30.43 inches Hg (1030.6 mb)
Winds: from the S (170 degrees) at 12 MPH (10 knots; 5.2 m/s)
Visibility: 10 or more miles (16+ km)
Ceiling: at least 12,000 feet AGL
Clouds: sky clear below 12,000 feet AGL
Weather: automated observation with no human augmentation;
there may or may not be significant weather present at this time

METAR text: KMNH 310532Z AUTO 17011KT 10SM CLR 01/M05 A3044 RMK AO2
Conditions at: KMNH (MONUMENT/ELBERT , CO, US) observed 0532 UTC 31 October 2014
Temperature: 1.0°C (34°F)
Dewpoint: -5.0°C (23°F) [RH = 64%]
Pressure (altimeter): 30.44 inches Hg (1030.9 mb)
Winds: from the S (170 degrees) at 13 MPH (11 knots; 5.7 m/s)
Visibility: 10 or more miles (16+ km)
Ceiling: at least 12,000 feet AGL
Clouds: sky clear below 12,000 feet AGL
Weather: automated observation with no human augmentation;
there may or may not be significant weather present at this time

METAR text: KMNH 310512Z AUTO 17011KT 10SM CLR 01/M04 A3044 RMK AO2
Conditions at: KMNH (MONUMENT/ELBERT , CO, US) observed 0512 UTC 31 October 2014
Temperature: 1.0°C (34°F)
Dewpoint: -4.0°C (25°F) [RH = 69%]
Pressure (altimeter): 30.44 inches Hg (1030.9 mb)
Winds: from the S (170 degrees) at 13 MPH (11 knots; 5.7 m/s)
Visibility: 10 or more miles (16+ km)
Ceiling: at least 12,000 feet AGL
Clouds: sky clear below 12,000 feet AGL
Weather: automated observation with no human augmentation;
there may or may not be significant weather present at this time

METAR text: KMNH 310452Z AUTO 16008KT 10SM CLR 01/M04 A3045 RMK AO2
Conditions at: KMNH (MONUMENT/ELBERT , CO, US) observed 0452 UTC 31 October 2014
Temperature: 1.0°C (34°F)
Dewpoint: -4.0°C (25°F) [RH = 69%]
Pressure (altimeter): 30.45 inches Hg (1031.2 mb)
Winds: from the SSE (160 degrees) at 9 MPH (8 knots; 4.2 m/s)
Visibility: 10 or more miles (16+ km)
Ceiling: at least 12,000 feet AGL
Clouds: sky clear below 12,000 feet AGL
Weather: automated observation with no human augmentation;
there may or may not be significant weather present at this time

METAR text: KMNH 310432Z AUTO 17008KT 10SM CLR 01/M04 A3045 RMK AO2
Conditions at: KMNH (MONUMENT/ELBERT , CO, US) observed 0432 UTC 31 October 2014
Temperature: 1.0°C (34°F)
Dewpoint: -4.0°C (25°F) [RH = 69%]
Pressure (altimeter): 30.45 inches Hg (1031.2 mb)
Winds: from the S (170 degrees) at 9 MPH (8 knots; 4.2 m/s)
Visibility: 10 or more miles (16+ km)
Ceiling: at least 12,000 feet AGL
Clouds: sky clear below 12,000 feet AGL
Weather: automated observation with no human augmentation;
there may or may not be significant weather present at this time

METAR text: KMNH 310412Z AUTO 17009KT 10SM CLR 00/M05 A3044 RMK AO2
Conditions at: KMNH (MONUMENT/ELBERT , CO, US) observed 0412 UTC 31 October 2014
Temperature: 0.0°C (32°F)
Dewpoint: -5.0°C (23°F) [RH = 69%]
Pressure (altimeter): 30.44 inches Hg (1030.9 mb)
Winds: from the S (170 degrees) at 10 MPH (9 knots; 4.7 m/s)
Visibility: 10 or more miles (16+ km)
Ceiling: at least 12,000 feet AGL
Clouds: sky clear below 12,000 feet AGL
Weather: automated observation with no human augmentation;
there may or may not be significant weather present at this time

METAR text: KMNH 310352Z AUTO 16007KT 10SM CLR 01/M05 A3044 RMK AO2
Conditions at: KMNH (MONUMENT/ELBERT , CO, US) observed 0352 UTC 31 October 2014
Temperature: 1.0°C (34°F)
Dewpoint: -5.0°C (23°F) [RH = 64%]
Pressure (altimeter): 30.44 inches Hg (1030.9 mb)
Winds: from the SSE (160 degrees) at 8 MPH (7 knots; 3.6 m/s)
Visibility: 10 or more miles (16+ km)
Ceiling: at least 12,000 feet AGL
Clouds: sky clear below 12,000 feet AGL
Weather: automated observation with no human augmentation;
there may or may not be significant weather present at this time

METAR text: KMNH 310332Z AUTO 14008KT 10SM CLR 02/M05 A3044 RMK AO2
Conditions at: KMNH (MONUMENT/ELBERT , CO, US) observed 0332 UTC 31 October 2014
Temperature: 2.0°C (36°F)
Dewpoint: -5.0°C (23°F) [RH = 60%]
Pressure (altimeter): 30.44 inches Hg (1030.9 mb)
Winds: from the SE (140 degrees) at 9 MPH (8 knots; 4.2 m/s)
Visibility: 10 or more miles (16+ km)
Ceiling: at least 12,000 feet AGL
Clouds: sky clear below 12,000 feet AGL
Weather: automated observation with no human augmentation;
there may or may not be significant weather present at this time

METAR text: KMNH 310311Z AUTO 15007KT 10SM CLR 03/M05 A3043 RMK AO2
Conditions at: KMNH (MONUMENT/ELBERT , CO, US) observed 0311 UTC 31 October 2014
Temperature: 3.0°C (37°F)
Dewpoint: -5.0°C (23°F) [RH = 56%]
Pressure (altimeter): 30.43 inches Hg (1030.6 mb)
Winds: from the SSE (150 degrees) at 8 MPH (7 knots; 3.6 m/s)
Visibility: 10 or more miles (16+ km)
Ceiling: at least 12,000 feet AGL
Clouds: sky clear below 12,000 feet AGL
Weather: automated observation with no human augmentation;
there may or may not be significant weather present at this time

METAR text: KMNH 310252Z AUTO 15007KT 10SM CLR 03/M04 A3043 RMK AO2
Conditions at: KMNH (MONUMENT/ELBERT , CO, US) observed 0252 UTC 31 October 2014
Temperature: 3.0°C (37°F)
Dewpoint: -4.0°C (25°F) [RH = 60%]
Pressure (altimeter): 30.43 inches Hg (1030.6 mb)
Winds: from the SSE (150 degrees) at 8 MPH (7 knots; 3.6 m/s)
Visibility: 10 or more miles (16+ km)
Ceiling: at least 12,000 feet AGL
Clouds: sky clear below 12,000 feet AGL
Weather: automated observation with no human augmentation;
there may or may not be significant weather present at this time

METAR text: KMNH 310232Z AUTO 15006KT 10SM CLR 03/M04 A3043 RMK AO2
Conditions at: KMNH (MONUMENT/ELBERT , CO, US) observed 0232 UTC 31 October 2014
Temperature: 3.0°C (37°F)
Dewpoint: -4.0°C (25°F) [RH = 60%]
Pressure (altimeter): 30.43 inches Hg (1030.6 mb)
Winds: from the SSE (150 degrees) at 7 MPH (6 knots; 3.1 m/s)
Visibility: 10 or more miles (16+ km)
Ceiling: at least 12,000 feet AGL
Clouds: sky clear below 12,000 feet AGL
Weather: automated observation with no human augmentation;
there may or may not be significant weather present at this time

METAR text: KMNH 310211Z AUTO 15007KT 10SM CLR 04/M04 A3043 RMK AO2
Conditions at: KMNH (MONUMENT/ELBERT , CO, US) observed 0211 UTC 31 October 2014
Temperature: 4.0°C (39°F)
Dewpoint: -4.0°C (25°F) [RH = 56%]
Pressure (altimeter): 30.43 inches Hg (1030.6 mb)
Winds: from the SSE (150 degrees) at 8 MPH (7 knots; 3.6 m/s)
Visibility: 10 or more miles (16+ km)
Ceiling: at least 12,000 feet AGL
Clouds: sky clear below 12,000 feet AGL
Weather: automated observation with no human augmentation;
there may or may not be significant weather present at this time

METAR text: KMNH 310152Z AUTO 14006KT 10SM CLR 04/M04 A3042 RMK AO2
Conditions at: KMNH (MONUMENT/ELBERT , CO, US) observed 0152 UTC 31 October 2014
Temperature: 4.0°C (39°F)
Dewpoint: -4.0°C (25°F) [RH = 56%]
Pressure (altimeter): 30.42 inches Hg (1030.2 mb)
Winds: from the SE (140 degrees) at 7 MPH (6 knots; 3.1 m/s)
Visibility: 10 or more miles (16+ km)
Ceiling: at least 12,000 feet AGL
Clouds: sky clear below 12,000 feet AGL
Weather: automated observation with no human augmentation;
there may or may not be significant weather present at this time

METAR text: KMNH 310131Z AUTO 14007KT 10SM CLR 05/M04 A3042 RMK AO2
Conditions at: KMNH (MONUMENT/ELBERT , CO, US) observed 0131 UTC 31 October 2014
Temperature: 5.0°C (41°F)
Dewpoint: -4.0°C (25°F) [RH = 52%]
Pressure (altimeter): 30.42 inches Hg (1030.2 mb)
Winds: from the SE (140 degrees) at 8 MPH (7 knots; 3.6 m/s)
Visibility: 10 or more miles (16+ km)
Ceiling: at least 12,000 feet AGL
Clouds: sky clear below 12,000 feet AGL
Weather: automated observation with no human augmentation;
there may or may not be significant weather present at this time

METAR text: KMNH 310111Z AUTO 14006KT 10SM CLR 05/M04 A3041 RMK AO2
Conditions at: KMNH (MONUMENT/ELBERT , CO, US) observed 0111 UTC 31 October 2014
Temperature: 5.0°C (41°F)
Dewpoint: -4.0°C (25°F) [RH = 52%]
Pressure (altimeter): 30.41 inches Hg (1029.9 mb)
Winds: from the SE (140 degrees) at 7 MPH (6 knots; 3.1 m/s)
Visibility: 10 or more miles (16+ km)
Ceiling: at least 12,000 feet AGL
Clouds: sky clear below 12,000 feet AGL
Weather: automated observation with no human augmentation;
there may or may not be significant weather present at this time

METAR text: KMNH 310052Z AUTO 13005KT 10SM CLR 05/M03 A3041 RMK AO2
Conditions at: KMNH (MONUMENT/ELBERT , CO, US) observed 0052 UTC 31 October 2014
Temperature: 5.0°C (41°F)
Dewpoint: -3.0°C (27°F) [RH = 56%]
Pressure (altimeter): 30.41 inches Hg (1029.9 mb)
Winds: from the SE (130 degrees) at 6 MPH (5 knots; 2.6 m/s)
Visibility: 10 or more miles (16+ km)
Ceiling: at least 12,000 feet AGL
Clouds: sky clear below 12,000 feet AGL
Weather: automated observation with no human augmentation;
there may or may not be significant weather present at this time

METAR text: KMNH 310032Z AUTO 10006KT 10SM CLR 05/M04 A3041 RMK AO2
Conditions at: KMNH (MONUMENT/ELBERT , CO, US) observed 0032 UTC 31 October 2014
Temperature: 5.0°C (41°F)
Dewpoint: -4.0°C (25°F) [RH = 52%]
Pressure (altimeter): 30.41 inches Hg (1029.9 mb)
Winds: from the E (100 degrees) at 7 MPH (6 knots; 3.1 m/s)
Visibility: 10 or more miles (16+ km)
Ceiling: at least 12,000 feet AGL
Clouds: sky clear below 12,000 feet AGL
Weather: automated observation with no human augmentation;
there may or may not be significant weather present at this time

METAR text: KMNH 310011Z AUTO 13006KT 10SM CLR 06/M04 A3039 RMK AO2
Conditions at: KMNH (MONUMENT/ELBERT , CO, US) observed 0011 UTC 31 October 2014
Temperature: 6.0°C (43°F)
Dewpoint: -4.0°C (25°F) [RH = 49%]
Pressure (altimeter): 30.39 inches Hg (1029.2 mb)
Winds: from the SE (130 degrees) at 7 MPH (6 knots; 3.1 m/s)
Visibility: 10 or more miles (16+ km)
Ceiling: at least 12,000 feet AGL
Clouds: sky clear below 12,000 feet AGL
Weather: automated observation with no human augmentation;
there may or may not be significant weather present at this time

METAR text: KMNH 302352Z AUTO 14007KT 10SM CLR 07/M04 A3039 RMK AO2
Conditions at: KMNH (MONUMENT/ELBERT , CO, US) observed 2352 UTC 30 October 2014
Temperature: 7.0°C (45°F)
Dewpoint: -4.0°C (25°F) [RH = 45%]
Pressure (altimeter): 30.39 inches Hg (1029.2 mb)
Winds: from the SE (140 degrees) at 8 MPH (7 knots; 3.6 m/s)
Visibility: 10 or more miles (16+ km)
Ceiling: at least 12,000 feet AGL
Clouds: sky clear below 12,000 feet AGL
Weather: automated observation with no human augmentation;
there may or may not be significant weather present at this time

METAR text: KMNH 302332Z AUTO 15006KT 10SM CLR 09/M04 A3038 RMK AO2
Conditions at: KMNH (MONUMENT/ELBERT , CO, US) observed 2332 UTC 30 October 2014
Temperature: 9.0°C (48°F)
Dewpoint: -4.0°C (25°F) [RH = 40%]
Pressure (altimeter): 30.38 inches Hg (1028.9 mb)
Winds: from the SSE (150 degrees) at 7 MPH (6 knots; 3.1 m/s)
Visibility: 10 or more miles (16+ km)
Ceiling: at least 12,000 feet AGL
Clouds: sky clear below 12,000 feet AGL
Weather: automated observation with no human augmentation;
there may or may not be significant weather present at this time

METAR text: KMNH 302312Z AUTO 15006KT 10SM CLR 11/M04 A3037 RMK AO2
Conditions at: KMNH (MONUMENT/ELBERT , CO, US) observed 2312 UTC 30 October 2014
Temperature: 11.0°C (52°F)
Dewpoint: -4.0°C (25°F) [RH = 35%]
Pressure (altimeter): 30.37 inches Hg (1028.5 mb)
Winds: from the SSE (150 degrees) at 7 MPH (6 knots; 3.1 m/s)
Visibility: 10 or more miles (16+ km)
Ceiling: at least 12,000 feet AGL
Clouds: sky clear below 12,000 feet AGL
Weather: automated observation with no human augmentation;
there may or may not be significant weather present at this time

METAR text: KMNH 302252Z AUTO 16006KT 10SM CLR 12/M05 A3037 RMK AO2
Conditions at: KMNH (MONUMENT/ELBERT , CO, US) observed 2252 UTC 30 October 2014
Temperature: 12.0°C (54°F)
Dewpoint: -5.0°C (23°F) [RH = 30%]
Pressure (altimeter): 30.37 inches Hg (1028.5 mb)
Winds: from the SSE (160 degrees) at 7 MPH (6 knots; 3.1 m/s)
Visibility: 10 or more miles (16+ km)
Ceiling: at least 12,000 feet AGL
Clouds: sky clear below 12,000 feet AGL
Weather: automated observation with no human augmentation;
there may or may not be significant weather present at this time

METAR text: KMNH 302229Z AUTO 13007KT 10SM CLR 13/M04 A3036 RMK AO2
Conditions at: KMNH (MONUMENT/ELBERT , CO, US) observed 2229 UTC 30 October 2014
Temperature: 13.0°C (55°F)
Dewpoint: -4.0°C (25°F) [RH = 30%]
Pressure (altimeter): 30.36 inches Hg (1028.2 mb)
Winds: from the SE (130 degrees) at 8 MPH (7 knots; 3.6 m/s)
Visibility: 10 or more miles (16+ km)
Ceiling: at least 12,000 feet AGL
Clouds: sky clear below 12,000 feet AGL
Weather: automated observation with no human augmentation;
there may or may not be significant weather present at this time

METAR text: KMNH 302212Z AUTO 15008KT 10SM CLR 13/M04 A3036 RMK AO2
Conditions at: KMNH (MONUMENT/ELBERT , CO, US) observed 2212 UTC 30 October 2014
Temperature: 13.0°C (55°F)
Dewpoint: -4.0°C (25°F) [RH = 30%]
Pressure (altimeter): 30.36 inches Hg (1028.2 mb)
Winds: from the SSE (150 degrees) at 9 MPH (8 knots; 4.2 m/s)
Visibility: 10 or more miles (16+ km)
Ceiling: at least 12,000 feet AGL
Clouds: sky clear below 12,000 feet AGL
Weather: automated observation with no human augmentation;
there may or may not be significant weather present at this time

METAR text: KMNH 302152Z AUTO 12006KT 10SM CLR 13/M04 A3036 RMK AO2
Conditions at: KMNH (MONUMENT/ELBERT , CO, US) observed 2152 UTC 30 October 2014
Temperature: 13.0°C (55°F)
Dewpoint: -4.0°C (25°F) [RH = 30%]
Pressure (altimeter): 30.36 inches Hg (1028.2 mb)
Winds: from the ESE (120 degrees) at 7 MPH (6 knots; 3.1 m/s)
Visibility: 10 or more miles (16+ km)
Ceiling: at least 12,000 feet AGL
Clouds: sky clear below 12,000 feet AGL
Weather: automated observation with no human augmentation;
there may or may not be significant weather present at this time

METAR text: KMNH 302132Z AUTO 16008KT 10SM CLR 13/M04 A3035 RMK AO2
Conditions at: KMNH (MONUMENT/ELBERT , CO, US) observed 2132 UTC 30 October 2014
Temperature: 13.0°C (55°F)
Dewpoint: -4.0°C (25°F) [RH = 30%]
Pressure (altimeter): 30.35 inches Hg (1027.9 mb)
Winds: from the SSE (160 degrees) at 9 MPH (8 knots; 4.2 m/s)
Visibility: 10 or more miles (16+ km)
Ceiling: at least 12,000 feet AGL
Clouds: sky clear below 12,000 feet AGL
Weather: automated observation with no human augmentation;
there may or may not be significant weather present at this time

METAR text: KMNH 302111Z AUTO 15007KT 10SM CLR 13/M04 A3035 RMK AO2
Conditions at: KMNH (MONUMENT/ELBERT , CO, US) observed 2111 UTC 30 October 2014
Temperature: 13.0°C (55°F)
Dewpoint: -4.0°C (25°F) [RH = 30%]
Pressure (altimeter): 30.35 inches Hg (1027.9 mb)
Winds: from the SSE (150 degrees) at 8 MPH (7 knots; 3.6 m/s)
Visibility: 10 or more miles (16+ km)
Ceiling: at least 12,000 feet AGL
Clouds: sky clear below 12,000 feet AGL
Weather: automated observation with no human augmentation;
there may or may not be significant weather present at this time

METAR text: KMNH 302051Z AUTO 15006KT 10SM CLR 13/M04 A3035 RMK AO2
Conditions at: KMNH (MONUMENT/ELBERT , CO, US) observed 2051 UTC 30 October 2014
Temperature: 13.0°C (55°F)
Dewpoint: -4.0°C (25°F) [RH = 30%]
Pressure (altimeter): 30.35 inches Hg (1027.9 mb)
Winds: from the SSE (150 degrees) at 7 MPH (6 knots; 3.1 m/s)
Visibility: 10 or more miles (16+ km)
Ceiling: at least 12,000 feet AGL
Clouds: sky clear below 12,000 feet AGL
Weather: automated observation with no human augmentation;
there may or may not be significant weather present at this time

METAR text: KMNH 302031Z AUTO 14006KT 10SM CLR 15/M04 A3035 RMK AO2
Conditions at: KMNH (MONUMENT/ELBERT , CO, US) observed 2031 UTC 30 October 2014
Temperature: 15.0°C (59°F)
Dewpoint: -4.0°C (25°F) [RH = 27%]
Pressure (altimeter): 30.35 inches Hg (1027.9 mb)
Winds: from the SE (140 degrees) at 7 MPH (6 knots; 3.1 m/s)
Visibility: 10 or more miles (16+ km)
Ceiling: at least 12,000 feet AGL
Clouds: sky clear below 12,000 feet AGL
Weather: automated observation with no human augmentation;
there may or may not be significant weather present at this time

METAR text: KMNH 302004Z AUTO 16007G14KT 10SM CLR 13/M04 A3035 RMK AO2
Conditions at: KMNH (MONUMENT/ELBERT , CO, US) observed 2004 UTC 30 October 2014
Temperature: 13.0°C (55°F)
Dewpoint: -4.0°C (25°F) [RH = 30%]
Pressure (altimeter): 30.35 inches Hg (1027.9 mb)
Winds: from the SSE (160 degrees) at 8 MPH (7 knots; 3.6 m/sgusting to 16 MPH (14 knots; 7.3 m/s)
Visibility: 10 or more miles (16+ km)
Ceiling: at least 12,000 feet AGL
Clouds: sky clear below 12,000 feet AGL
Weather: automated observation with no human augmentation;
there may or may not be significant weather present at this time

METAR text: KMNH 301951Z AUTO 11009KT 10SM CLR 13/M04 A3036 RMK AO2
Conditions at: KMNH (MONUMENT/ELBERT , CO, US) observed 1951 UTC 30 October 2014
Temperature: 13.0°C (55°F)
Dewpoint: -4.0°C (25°F) [RH = 30%]
Pressure (altimeter): 30.36 inches Hg (1028.2 mb)
Winds: from the ESE (110 degrees) at 10 MPH (9 knots; 4.7 m/s)
Visibility: 10 or more miles (16+ km)
Ceiling: at least 12,000 feet AGL
Clouds: sky clear below 12,000 feet AGL
Weather: automated observation with no human augmentation;
there may or may not be significant weather present at this time

METAR text: KMNH 301925Z AUTO 14004KT 10SM CLR 13/M03 A3037 RMK AO2
Conditions at: KMNH (MONUMENT/ELBERT , CO, US) observed 1925 UTC 30 October 2014
Temperature: 13.0°C (55°F)
Dewpoint: -3.0°C (27°F) [RH = 33%]
Pressure (altimeter): 30.37 inches Hg (1028.5 mb)
Winds: from the SE (140 degrees) at 5 MPH (4 knots; 2.1 m/s)
Visibility: 10 or more miles (16+ km)
Ceiling: at least 12,000 feet AGL
Clouds: sky clear below 12,000 feet AGL
Weather: automated observation with no human augmentation;
there may or may not be significant weather present at this time

METAR text: KMNH 301906Z AUTO 12006KT 10SM CLR 13/M04 A3037 RMK AO2
Conditions at: KMNH (MONUMENT/ELBERT , CO, US) observed 1906 UTC 30 October 2014
Temperature: 13.0°C (55°F)
Dewpoint: -4.0°C (25°F) [RH = 30%]
Pressure (altimeter): 30.37 inches Hg (1028.5 mb)
Winds: from the ESE (120 degrees) at 7 MPH (6 knots; 3.1 m/s)
Visibility: 10 or more miles (16+ km)
Ceiling: at least 12,000 feet AGL
Clouds: sky clear below 12,000 feet AGL
Weather: automated observation with no human augmentation;
there may or may not be significant weather present at this time

METAR text: KMNH 301851Z AUTO 11003KT 10SM CLR 12/M04 A3038 RMK AO2
Conditions at: KMNH (MONUMENT/ELBERT , CO, US) observed 1851 UTC 30 October 2014
Temperature: 12.0°C (54°F)
Dewpoint: -4.0°C (25°F) [RH = 32%]
Pressure (altimeter): 30.38 inches Hg (1028.9 mb)
Winds: from the ESE (110 degrees) at 3 MPH (3 knots; 1.6 m/s)
Visibility: 10 or more miles (16+ km)
Ceiling: at least 12,000 feet AGL
Clouds: sky clear below 12,000 feet AGL
Weather: automated observation with no human augmentation;
there may or may not be significant weather present at this time

METAR text: KMNH 301831Z AUTO 00000KT 10SM CLR 12/M04 A3039 RMK AO2
Conditions at: KMNH (MONUMENT/ELBERT , CO, US) observed 1831 UTC 30 October 2014
Temperature: 12.0°C (54°F)
Dewpoint: -4.0°C (25°F) [RH = 32%]
Pressure (altimeter): 30.39 inches Hg (1029.2 mb)
Winds: calm
Visibility: 10 or more miles (16+ km)
Ceiling: at least 12,000 feet AGL
Clouds: sky clear below 12,000 feet AGL
Weather: automated observation with no human augmentation;
there may or may not be significant weather present at this time

METAR text: KMNH 301811Z AUTO 17004KT 10SM CLR 11/M04 A3040 RMK AO2
Conditions at: KMNH (MONUMENT/ELBERT , CO, US) observed 1811 UTC 30 October 2014
Temperature: 11.0°C (52°F)
Dewpoint: -4.0°C (25°F) [RH = 35%]
Pressure (altimeter): 30.40 inches Hg (1029.5 mb)
Winds: from the S (170 degrees) at 5 MPH (4 knots; 2.1 m/s)
Visibility: 10 or more miles (16+ km)
Ceiling: at least 12,000 feet AGL
Clouds: sky clear below 12,000 feet AGL
Weather: automated observation with no human augmentation;
there may or may not be significant weather present at this time

METAR text: KMNH 301752Z AUTO 00000KT 10SM CLR 10/M05 A3041 RMK AO2
Conditions at: KMNH (MONUMENT/ELBERT , CO, US) observed 1752 UTC 30 October 2014
Temperature: 10.0°C (50°F)
Dewpoint: -5.0°C (23°F) [RH = 34%]
Pressure (altimeter): 30.41 inches Hg (1029.9 mb)
Winds: calm
Visibility: 10 or more miles (16+ km)
Ceiling: at least 12,000 feet AGL
Clouds: sky clear below 12,000 feet AGL
Weather: automated observation with no human augmentation;
there may or may not be significant weather present at this time

METAR text: KMNH 301731Z AUTO 06003KT 10SM CLR 10/M05 A3042 RMK AO2
Conditions at: KMNH (MONUMENT/ELBERT , CO, US) observed 1731 UTC 30 October 2014
Temperature: 10.0°C (50°F)
Dewpoint: -5.0°C (23°F) [RH = 34%]
Pressure (altimeter): 30.42 inches Hg (1030.2 mb)
Winds: from the ENE (60 degrees) at 3 MPH (3 knots; 1.6 m/s)
Visibility: 10 or more miles (16+ km)
Ceiling: at least 12,000 feet AGL
Clouds: sky clear below 12,000 feet AGL
Weather: automated observation with no human augmentation;
there may or may not be significant weather present at this time

METAR text: KMNH 301712Z AUTO 00000KT 10SM CLR 09/M05 A3042 RMK AO2
Conditions at: KMNH (MONUMENT/ELBERT , CO, US) observed 1712 UTC 30 October 2014
Temperature: 9.0°C (48°F)
Dewpoint: -5.0°C (23°F) [RH = 37%]
Pressure (altimeter): 30.42 inches Hg (1030.2 mb)
Winds: calm
Visibility: 10 or more miles (16+ km)
Ceiling: at least 12,000 feet AGL
Clouds: sky clear below 12,000 feet AGL
Weather: automated observation with no human augmentation;
there may or may not be significant weather present at this time

METAR text: KMNH 301652Z AUTO 07004KT 10SM CLR 08/M05 A3042 RMK AO2
Conditions at: KMNH (MONUMENT/ELBERT , CO, US) observed 1652 UTC 30 October 2014
Temperature: 8.0°C (46°F)
Dewpoint: -5.0°C (23°F) [RH = 39%]
Pressure (altimeter): 30.42 inches Hg (1030.2 mb)
Winds: from the ENE (70 degrees) at 5 MPH (4 knots; 2.1 m/s)
Visibility: 10 or more miles (16+ km)
Ceiling: at least 12,000 feet AGL
Clouds: sky clear below 12,000 feet AGL
Weather: automated observation with no human augmentation;
there may or may not be significant weather present at this time

METAR text: KMNH 301632Z AUTO 00000KT 10SM CLR 08/M05 A3042 RMK AO2
Conditions at: KMNH (MONUMENT/ELBERT , CO, US) observed 1632 UTC 30 October 2014
Temperature: 8.0°C (46°F)
Dewpoint: -5.0°C (23°F) [RH = 39%]
Pressure (altimeter): 30.42 inches Hg (1030.2 mb)
Winds: calm
Visibility: 10 or more miles (16+ km)
Ceiling: at least 12,000 feet AGL
Clouds: sky clear below 12,000 feet AGL
Weather: automated observation with no human augmentation;
there may or may not be significant weather present at this time

METAR text: KMNH 301612Z AUTO 00000KT 10SM CLR 08/M05 A3042 RMK AO2
Conditions at: KMNH (MONUMENT/ELBERT , CO, US) observed 1612 UTC 30 October 2014
Temperature: 8.0°C (46°F)
Dewpoint: -5.0°C (23°F) [RH = 39%]
Pressure (altimeter): 30.42 inches Hg (1030.2 mb)
Winds: calm
Visibility: 10 or more miles (16+ km)
Ceiling: at least 12,000 feet AGL
Clouds: sky clear below 12,000 feet AGL
Weather: automated observation with no human augmentation;
there may or may not be significant weather present at this time

METAR text: KMNH 301552Z AUTO 00000KT 10SM CLR 07/M05 A3042 RMK AO2
Conditions at: KMNH (MONUMENT/ELBERT , CO, US) observed 1552 UTC 30 October 2014
Temperature: 7.0°C (45°F)
Dewpoint: -5.0°C (23°F) [RH = 42%]
Pressure (altimeter): 30.42 inches Hg (1030.2 mb)
Winds: calm
Visibility: 10 or more miles (16+ km)
Ceiling: at least 12,000 feet AGL
Clouds: sky clear below 12,000 feet AGL
Weather: automated observation with no human augmentation;
there may or may not be significant weather present at this time

METAR text: KMNH 301530Z AUTO 00000KT 10SM CLR 07/M04 A3042 RMK AO2
Conditions at: KMNH (MONUMENT/ELBERT , CO, US) observed 1530 UTC 30 October 2014
Temperature: 7.0°C (45°F)
Dewpoint: -4.0°C (25°F) [RH = 45%]
Pressure (altimeter): 30.42 inches Hg (1030.2 mb)
Winds: calm
Visibility: 10 or more miles (16+ km)
Ceiling: at least 12,000 feet AGL
Clouds: sky clear below 12,000 feet AGL
Weather: automated observation with no human augmentation;
there may or may not be significant weather present at this time

METAR text: KMNH 301512Z AUTO 31003KT 10SM CLR 06/M04 A3042 RMK AO2
Conditions at: KMNH (MONUMENT/ELBERT , CO, US) observed 1512 UTC 30 October 2014
Temperature: 6.0°C (43°F)
Dewpoint: -4.0°C (25°F) [RH = 49%]
Pressure (altimeter): 30.42 inches Hg (1030.2 mb)
Winds: from the NW (310 degrees) at 3 MPH (3 knots; 1.6 m/s)
Visibility: 10 or more miles (16+ km)
Ceiling: at least 12,000 feet AGL
Clouds: sky clear below 12,000 feet AGL
Weather: automated observation with no human augmentation;
there may or may not be significant weather present at this time

METAR text: KMNH 301452Z AUTO 32003KT 10SM CLR 05/M04 A3041 RMK AO2
Conditions at: KMNH (MONUMENT/ELBERT , CO, US) observed 1452 UTC 30 October 2014
Temperature: 5.0°C (41°F)
Dewpoint: -4.0°C (25°F) [RH = 52%]
Pressure (altimeter): 30.41 inches Hg (1029.9 mb)
Winds: from the NW (320 degrees) at 3 MPH (3 knots; 1.6 m/s)
Visibility: 10 or more miles (16+ km)
Ceiling: at least 12,000 feet AGL
Clouds: sky clear below 12,000 feet AGL
Weather: automated observation with no human augmentation;
there may or may not be significant weather present at this time

METAR text: KMNH 301432Z AUTO 27004KT 10SM CLR 04/M05 A3040 RMK AO2
Conditions at: KMNH (MONUMENT/ELBERT , CO, US) observed 1432 UTC 30 October 2014
Temperature: 4.0°C (39°F)
Dewpoint: -5.0°C (23°F) [RH = 52%]
Pressure (altimeter): 30.40 inches Hg (1029.5 mb)
Winds: from the W (270 degrees) at 5 MPH (4 knots; 2.1 m/s)
Visibility: 10 or more miles (16+ km)
Ceiling: at least 12,000 feet AGL
Clouds: sky clear below 12,000 feet AGL
Weather: automated observation with no human augmentation;
there may or may not be significant weather present at this time

METAR text: KMNH 301412Z AUTO 31004KT 10SM CLR 03/M05 A3039 RMK AO2
Conditions at: KMNH (MONUMENT/ELBERT , CO, US) observed 1412 UTC 30 October 2014
Temperature: 3.0°C (37°F)
Dewpoint: -5.0°C (23°F) [RH = 56%]
Pressure (altimeter): 30.39 inches Hg (1029.2 mb)
Winds: from the NW (310 degrees) at 5 MPH (4 knots; 2.1 m/s)
Visibility: 10 or more miles (16+ km)
Ceiling: at least 12,000 feet AGL
Clouds: sky clear below 12,000 feet AGL
Weather: automated observation with no human augmentation;
there may or may not be significant weather present at this time

METAR text: KMNH 301352Z AUTO 30003KT 10SM CLR 00/M06 A3038 RMK AO2
Conditions at: KMNH (MONUMENT/ELBERT , CO, US) observed 1352 UTC 30 October 2014
Temperature: 0.0°C (32°F)
Dewpoint: -6.0°C (21°F) [RH = 64%]
Pressure (altimeter): 30.38 inches Hg (1028.9 mb)
Winds: from the WNW (300 degrees) at 3 MPH (3 knots; 1.6 m/s)
Visibility: 10 or more miles (16+ km)
Ceiling: at least 12,000 feet AGL
Clouds: sky clear below 12,000 feet AGL
Weather: automated observation with no human augmentation;
there may or may not be significant weather present at this time

METAR text: KMNH 301332Z AUTO 29004KT 10SM CLR 01/M06 A3038 RMK AO2
Conditions at: KMNH (MONUMENT/ELBERT , CO, US) observed 1332 UTC 30 October 2014
Temperature: 1.0°C (34°F)
Dewpoint: -6.0°C (21°F) [RH = 59%]
Pressure (altimeter): 30.38 inches Hg (1028.9 mb)
Winds: from the WNW (290 degrees) at 5 MPH (4 knots; 2.1 m/s)
Visibility: 10 or more miles (16+ km)
Ceiling: at least 12,000 feet AGL
Clouds: sky clear below 12,000 feet AGL
Weather: automated observation with no human augmentation;
there may or may not be significant weather present at this time

METAR text: KMNH 301311Z AUTO 29004KT 10SM CLR 00/M06 A3038 RMK AO2
Conditions at: KMNH (MONUMENT/ELBERT , CO, US) observed 1311 UTC 30 October 2014
Temperature: 0.0°C (32°F)
Dewpoint: -6.0°C (21°F) [RH = 64%]
Pressure (altimeter): 30.38 inches Hg (1028.9 mb)
Winds: from the WNW (290 degrees) at 5 MPH (4 knots; 2.1 m/s)
Visibility: 10 or more miles (16+ km)
Ceiling: at least 12,000 feet AGL
Clouds: sky clear below 12,000 feet AGL
Weather: automated observation with no human augmentation;
there may or may not be significant weather present at this time

METAR text: KMNH 301252Z AUTO 28004KT 10SM CLR 00/M06 A3037 RMK AO2
Conditions at: KMNH (MONUMENT/ELBERT , CO, US) observed 1252 UTC 30 October 2014
Temperature: 0.0°C (32°F)
Dewpoint: -6.0°C (21°F) [RH = 64%]
Pressure (altimeter): 30.37 inches Hg (1028.5 mb)
Winds: from the W (280 degrees) at 5 MPH (4 knots; 2.1 m/s)
Visibility: 10 or more miles (16+ km)
Ceiling: at least 12,000 feet AGL
Clouds: sky clear below 12,000 feet AGL
Weather: automated observation with no human augmentation;
there may or may not be significant weather present at this time

METAR text: KMNH 301232Z AUTO 28005KT 10SM CLR 00/M06 A3037 RMK AO2
Conditions at: KMNH (MONUMENT/ELBERT , CO, US) observed 1232 UTC 30 October 2014
Temperature: 0.0°C (32°F)
Dewpoint: -6.0°C (21°F) [RH = 64%]
Pressure (altimeter): 30.37 inches Hg (1028.5 mb)
Winds: from the W (280 degrees) at 6 MPH (5 knots; 2.6 m/s)
Visibility: 10 or more miles (16+ km)
Ceiling: at least 12,000 feet AGL
Clouds: sky clear below 12,000 feet AGL
Weather: automated observation with no human augmentation;
there may or may not be significant weather present at this time

METAR text: KMNH 301211Z AUTO 30005KT 10SM CLR 01/M06 A3037 RMK AO2
Conditions at: KMNH (MONUMENT/ELBERT , CO, US) observed 1211 UTC 30 October 2014
Temperature: 1.0°C (34°F)
Dewpoint: -6.0°C (21°F) [RH = 59%]
Pressure (altimeter): 30.37 inches Hg (1028.5 mb)
Winds: from the WNW (300 degrees) at 6 MPH (5 knots; 2.6 m/s)
Visibility: 10 or more miles (16+ km)
Ceiling: at least 12,000 feet AGL
Clouds: sky clear below 12,000 feet AGL
Weather: automated observation with no human augmentation;
there may or may not be significant weather present at this time

METAR text: KMNH 301152Z AUTO 30004KT 10SM CLR 00/M06 A3036 RMK AO2
Conditions at: KMNH (MONUMENT/ELBERT , CO, US) observed 1152 UTC 30 October 2014
Temperature: 0.0°C (32°F)
Dewpoint: -6.0°C (21°F) [RH = 64%]
Pressure (altimeter): 30.36 inches Hg (1028.2 mb)
Winds: from the WNW (300 degrees) at 5 MPH (4 knots; 2.1 m/s)
Visibility: 10 or more miles (16+ km)
Ceiling: at least 12,000 feet AGL
Clouds: sky clear below 12,000 feet AGL
Weather: automated observation with no human augmentation;
there may or may not be significant weather present at this time

METAR text: KMNH 301131Z AUTO 28004KT 10SM CLR 00/M06 A3036 RMK AO2
Conditions at: KMNH (MONUMENT/ELBERT , CO, US) observed 1131 UTC 30 October 2014
Temperature: 0.0°C (32°F)
Dewpoint: -6.0°C (21°F) [RH = 64%]
Pressure (altimeter): 30.36 inches Hg (1028.2 mb)
Winds: from the W (280 degrees) at 5 MPH (4 knots; 2.1 m/s)
Visibility: 10 or more miles (16+ km)
Ceiling: at least 12,000 feet AGL
Clouds: sky clear below 12,000 feet AGL
Weather: automated observation with no human augmentation;
there may or may not be significant weather present at this time

METAR text: KMNH 301112Z AUTO 28003KT 10SM CLR M01/M06 A3035 RMK AO2
Conditions at: KMNH (MONUMENT/ELBERT , CO, US) observed 1112 UTC 30 October 2014
Temperature: -1.0°C (30°F)
Dewpoint: -6.0°C (21°F) [RH = 69%]
Pressure (altimeter): 30.35 inches Hg (1027.9 mb)
Winds: from the W (280 degrees) at 3 MPH (3 knots; 1.6 m/s)
Visibility: 10 or more miles (16+ km)
Ceiling: at least 12,000 feet AGL
Clouds: sky clear below 12,000 feet AGL
Weather: automated observation with no human augmentation;
there may or may not be significant weather present at this time

METAR text: KMNH 301051Z AUTO 28004KT 10SM CLR M01/M06 A3035 RMK AO2
Conditions at: KMNH (MONUMENT/ELBERT , CO, US) observed 1051 UTC 30 October 2014
Temperature: -1.0°C (30°F)
Dewpoint: -6.0°C (21°F) [RH = 69%]
Pressure (altimeter): 30.35 inches Hg (1027.9 mb)
Winds: from the W (280 degrees) at 5 MPH (4 knots; 2.1 m/s)
Visibility: 10 or more miles (16+ km)
Ceiling: at least 12,000 feet AGL
Clouds: sky clear below 12,000 feet AGL
Weather: automated observation with no human augmentation;
there may or may not be significant weather present at this time

METAR text: KMNH 301032Z AUTO 23003KT 10SM CLR M01/M05 A3033 RMK AO2
Conditions at: KMNH (MONUMENT/ELBERT , CO, US) observed 1032 UTC 30 October 2014
Temperature: -1.0°C (30°F)
Dewpoint: -5.0°C (23°F) [RH = 74%]
Pressure (altimeter): 30.33 inches Hg (1027.2 mb)
Winds: from the SW (230 degrees) at 3 MPH (3 knots; 1.6 m/s)
Visibility: 10 or more miles (16+ km)
Ceiling: at least 12,000 feet AGL
Clouds: sky clear below 12,000 feet AGL
Weather: automated observation with no human augmentation;
there may or may not be significant weather present at this time

METAR text: KMNH 301012Z AUTO 26003KT 10SM CLR M02/M06 A3033 RMK AO2
Conditions at: KMNH (MONUMENT/ELBERT , CO, US) observed 1012 UTC 30 October 2014
Temperature: -2.0°C (28°F)
Dewpoint: -6.0°C (21°F) [RH = 74%]
Pressure (altimeter): 30.33 inches Hg (1027.2 mb)
Winds: from the W (260 degrees) at 3 MPH (3 knots; 1.6 m/s)
Visibility: 10 or more miles (16+ km)
Ceiling: at least 12,000 feet AGL
Clouds: sky clear below 12,000 feet AGL
Weather: automated observation with no human augmentation;
there may or may not be significant weather present at this time

METAR text: KMNH 300952Z AUTO 00000KT 10SM CLR 00/M06 A3033 RMK AO2
Conditions at: KMNH (MONUMENT/ELBERT , CO, US) observed 0952 UTC 30 October 2014
Temperature: 0.0°C (32°F)
Dewpoint: -6.0°C (21°F) [RH = 64%]
Pressure (altimeter): 30.33 inches Hg (1027.2 mb)
Winds: calm
Visibility: 10 or more miles (16+ km)
Ceiling: at least 12,000 feet AGL
Clouds: sky clear below 12,000 feet AGL
Weather: automated observation with no human augmentation;
there may or may not be significant weather present at this time

METAR text: KMNH 300932Z AUTO 00000KT 10SM CLR 01/M06 A3032 RMK AO2
Conditions at: KMNH (MONUMENT/ELBERT , CO, US) observed 0932 UTC 30 October 2014
Temperature: 1.0°C (34°F)
Dewpoint: -6.0°C (21°F) [RH = 59%]
Pressure (altimeter): 30.32 inches Hg (1026.8 mb)
Winds: calm
Visibility: 10 or more miles (16+ km)
Ceiling: at least 12,000 feet AGL
Clouds: sky clear below 12,000 feet AGL
Weather: automated observation with no human augmentation;
there may or may not be significant weather present at this time

METAR text: KMNH 300912Z AUTO 00000KT 10SM CLR 02/M06 A3031 RMK AO2
Conditions at: KMNH (MONUMENT/ELBERT , CO, US) observed 0912 UTC 30 October 2014
Temperature: 2.0°C (36°F)
Dewpoint: -6.0°C (21°F) [RH = 55%]
Pressure (altimeter): 30.31 inches Hg (1026.5 mb)
Winds: calm
Visibility: 10 or more miles (16+ km)
Ceiling: at least 12,000 feet AGL
Clouds: sky clear below 12,000 feet AGL
Weather: automated observation with no human augmentation;
there may or may not be significant weather present at this time

METAR text: KMNH 300852Z AUTO 05004KT 10SM CLR 03/M06 A3032 RMK AO2
Conditions at: KMNH (MONUMENT/ELBERT , CO, US) observed 0852 UTC 30 October 2014
Temperature: 3.0°C (37°F)
Dewpoint: -6.0°C (21°F) [RH = 52%]
Pressure (altimeter): 30.32 inches Hg (1026.8 mb)
Winds: from the NE (50 degrees) at 5 MPH (4 knots; 2.1 m/s)
Visibility: 10 or more miles (16+ km)
Ceiling: at least 12,000 feet AGL
Clouds: sky clear below 12,000 feet AGL
Weather: automated observation with no human augmentation;
there may or may not be significant weather present at this time

METAR text: KMNH 300832Z AUTO 04005KT 10SM CLR 03/M06 A3031 RMK AO2
Conditions at: KMNH (MONUMENT/ELBERT , CO, US) observed 0832 UTC 30 October 2014
Temperature: 3.0°C (37°F)
Dewpoint: -6.0°C (21°F) [RH = 52%]
Pressure (altimeter): 30.31 inches Hg (1026.5 mb)
Winds: from the NE (40 degrees) at 6 MPH (5 knots; 2.6 m/s)
Visibility: 10 or more miles (16+ km)
Ceiling: at least 12,000 feet AGL
Clouds: sky clear below 12,000 feet AGL
Weather: automated observation with no human augmentation;
there may or may not be significant weather present at this time

METAR text: KMNH 300812Z AUTO 00000KT 10SM CLR 03/M08 A3030 RMK AO2
Conditions at: KMNH (MONUMENT/ELBERT , CO, US) observed 0812 UTC 30 October 2014
Temperature: 3.0°C (37°F)
Dewpoint: -8.0°C (18°F) [RH = 44%]
Pressure (altimeter): 30.30 inches Hg (1026.2 mb)
Winds: calm
Visibility: 10 or more miles (16+ km)
Ceiling: at least 12,000 feet AGL
Clouds: sky clear below 12,000 feet AGL
Weather: automated observation with no human augmentation;
there may or may not be significant weather present at this time

METAR text: KMNH 300752Z AUTO 07003KT 10SM CLR 03/M08 A3030 RMK AO2
Conditions at: KMNH (MONUMENT/ELBERT , CO, US) observed 0752 UTC 30 October 2014
Temperature: 3.0°C (37°F)
Dewpoint: -8.0°C (18°F) [RH = 44%]
Pressure (altimeter): 30.30 inches Hg (1026.2 mb)
Winds: from the ENE (70 degrees) at 3 MPH (3 knots; 1.6 m/s)
Visibility: 10 or more miles (16+ km)
Ceiling: at least 12,000 feet AGL
Clouds: sky clear below 12,000 feet AGL
Weather: automated observation with no human augmentation;
there may or may not be significant weather present at this time

METAR text: KMNH 300732Z AUTO 15003KT 10SM CLR 02/M07 A3029 RMK AO2
Conditions at: KMNH (MONUMENT/ELBERT , CO, US) observed 0732 UTC 30 October 2014
Temperature: 2.0°C (36°F)
Dewpoint: -7.0°C (19°F) [RH = 51%]
Pressure (altimeter): 30.29 inches Hg (1025.8 mb)
Winds: from the SSE (150 degrees) at 3 MPH (3 knots; 1.6 m/s)
Visibility: 10 or more miles (16+ km)
Ceiling: at least 12,000 feet AGL
Clouds: sky clear below 12,000 feet AGL
Weather: automated observation with no human augmentation;
there may or may not be significant weather present at this time

METAR text: KMNH 300712Z AUTO 00000KT 10SM CLR 01/M07 A3028 RMK AO2
Conditions at: KMNH (MONUMENT/ELBERT , CO, US) observed 0712 UTC 30 October 2014
Temperature: 1.0°C (34°F)
Dewpoint: -7.0°C (19°F) [RH = 55%]
Pressure (altimeter): 30.28 inches Hg (1025.5 mb)
Winds: calm
Visibility: 10 or more miles (16+ km)
Ceiling: at least 12,000 feet AGL
Clouds: sky clear below 12,000 feet AGL
Weather: automated observation with no human augmentation;
there may or may not be significant weather present at this time

METAR text: KMNH 300652Z AUTO 16004KT 10SM CLR 00/M07 A3028 RMK AO2
Conditions at: KMNH (MONUMENT/ELBERT , CO, US) observed 0652 UTC 30 October 2014
Temperature: 0.0°C (32°F)
Dewpoint: -7.0°C (19°F) [RH = 59%]
Pressure (altimeter): 30.28 inches Hg (1025.5 mb)
Winds: from the SSE (160 degrees) at 5 MPH (4 knots; 2.1 m/s)
Visibility: 10 or more miles (16+ km)
Ceiling: at least 12,000 feet AGL
Clouds: sky clear below 12,000 feet AGL
Weather: automated observation with no human augmentation;
there may or may not be significant weather present at this time

METAR text: KMNH 300632Z AUTO 18004KT 10SM CLR 01/M06 A3028 RMK AO2
Conditions at: KMNH (MONUMENT/ELBERT , CO, US) observed 0632 UTC 30 October 2014
Temperature: 1.0°C (34°F)
Dewpoint: -6.0°C (21°F) [RH = 59%]
Pressure (altimeter): 30.28 inches Hg (1025.5 mb)
Winds: from the S (180 degrees) at 5 MPH (4 knots; 2.1 m/s)
Visibility: 10 or more miles (16+ km)
Ceiling: at least 12,000 feet AGL
Clouds: sky clear below 12,000 feet AGL
Weather: automated observation with no human augmentation;
there may or may not be significant weather present at this time

METAR text: KMNH 300612Z AUTO 17004KT 10SM CLR 02/M07 A3027 RMK AO2
Conditions at: KMNH (MONUMENT/ELBERT , CO, US) observed 0612 UTC 30 October 2014
Temperature: 2.0°C (36°F)
Dewpoint: -7.0°C (19°F) [RH = 51%]
Pressure (altimeter): 30.27 inches Hg (1025.1 mb)
Winds: from the S (170 degrees) at 5 MPH (4 knots; 2.1 m/s)
Visibility: 10 or more miles (16+ km)
Ceiling: at least 12,000 feet AGL
Clouds: sky clear below 12,000 feet AGL
Weather: automated observation with no human augmentation;
there may or may not be significant weather present at this time

METAR text: KMNH 300551Z AUTO 15004KT 10SM CLR 02/M07 A3027 RMK AO2
Conditions at: KMNH (MONUMENT/ELBERT , CO, US) observed 0551 UTC 30 October 2014
Temperature: 2.0°C (36°F)
Dewpoint: -7.0°C (19°F) [RH = 51%]
Pressure (altimeter): 30.27 inches Hg (1025.1 mb)
Winds: from the SSE (150 degrees) at 5 MPH (4 knots; 2.1 m/s)
Visibility: 10 or more miles (16+ km)
Ceiling: at least 12,000 feet AGL
Clouds: sky clear below 12,000 feet AGL
Weather: automated observation with no human augmentation;
there may or may not be significant weather present at this time